createdAt,value
2023-08-28T00:01:14.262Z,0.85
2023-08-28T00:03:42.824Z,0.75
2023-08-28T00:06:09.814Z,1.10
2023-08-28T00:08:36.816Z,0.88
2023-08-28T00:11:03.957Z,0.90
2023-08-28T00:13:30.937Z,0.90
2023-08-28T00:15:57.919Z,0.63
2023-08-28T00:18:24.810Z,0.90
2023-08-28T00:20:51.804Z,0.90
2023-08-28T00:23:18.886Z,1.10
2023-08-28T00:25:45.915Z,1.10
2023-08-28T00:28:13.134Z,1.05
2023-08-28T00:30:40.061Z,1.55
2023-08-28T00:33:07.079Z,1.20
2023-08-28T00:35:34.048Z,1.05
2023-08-28T00:38:01.128Z,1.00
2023-08-28T00:40:27.981Z,0.93
2023-08-28T00:42:54.894Z,0.95
2023-08-28T00:45:22.002Z,0.90
2023-08-28T00:47:50.107Z,1.02
2023-08-28T00:50:17.204Z,0.82
2023-08-28T00:52:44.155Z,0.90
2023-08-28T00:55:11.069Z,0.85
2023-08-28T00:57:38.006Z,1.13
2023-08-28T01:00:07.029Z,1.13
2023-08-28T01:02:33.999Z,0.90
2023-08-28T01:05:01.266Z,0.55
2023-08-28T01:07:34.861Z,0.80
2023-08-28T01:10:14.806Z,1.00
2023-08-28T01:12:52.612Z,0.70
2023-08-28T01:15:23.744Z,0.68
2023-08-28T01:17:55.622Z,0.90
2023-08-28T01:20:23.051Z,1.25
2023-08-28T01:22:59.182Z,0.90
2023-08-28T01:25:26.574Z,0.60
2023-08-28T01:27:53.975Z,0.73
2023-08-28T01:30:22.258Z,0.70
2023-08-28T01:32:49.325Z,0.77
2023-08-28T01:35:23.124Z,1.42
2023-08-28T01:40:44.933Z,0.80
2023-08-28T01:43:13.163Z,0.80
2023-08-28T01:45:40.416Z,1.15
2023-08-28T01:48:07.689Z,1.00
2023-08-28T01:50:34.672Z,0.80
2023-08-28T01:53:01.774Z,0.77
2023-08-28T01:55:47.337Z,1.20
2023-08-28T01:58:14.295Z,0.93
2023-08-28T02:00:41.482Z,0.90
2023-08-28T02:03:10.373Z,0.80
2023-08-28T02:05:37.710Z,1.00
2023-08-28T02:08:06.019Z,0.60
2023-08-28T02:10:32.936Z,0.77
2023-08-28T02:13:00.308Z,0.65
2023-08-28T02:15:28.075Z,0.88
2023-08-28T02:17:55.092Z,0.57
2023-08-28T02:20:22.032Z,0.85
2023-08-28T02:22:48.938Z,0.70
2023-08-28T02:25:19.414Z,0.63
2023-08-28T02:27:46.349Z,0.73
2023-08-28T02:30:13.485Z,1.23
2023-08-28T02:32:40.559Z,1.02
2023-08-28T02:35:07.770Z,0.70
2023-08-28T02:37:34.801Z,0.80
2023-08-28T02:40:01.759Z,0.70
2023-08-28T02:42:28.642Z,0.82
2023-08-28T02:44:55.549Z,0.90
2023-08-28T02:47:22.568Z,0.70
2023-08-28T02:49:49.534Z,0.93
2023-08-28T02:52:16.556Z,1.02
2023-08-28T02:54:43.454Z,0.60
2023-08-28T02:57:10.499Z,0.60
2023-08-28T02:59:37.389Z,0.90
2023-08-28T03:02:04.519Z,1.10
2023-08-28T03:04:31.416Z,0.90
2023-08-28T03:06:58.345Z,0.90
2023-08-28T03:09:25.262Z,0.70
2023-08-28T03:11:52.158Z,0.90
2023-08-28T03:14:19.050Z,0.93
2023-08-28T03:16:46.004Z,1.05
2023-08-28T03:19:12.976Z,0.73
2023-08-28T03:21:41.251Z,0.82
2023-08-28T03:24:08.456Z,0.95
2023-08-28T03:26:35.403Z,0.88
2023-08-28T03:29:02.443Z,0.95
2023-08-28T03:31:30.047Z,0.77
2023-08-28T03:33:57.253Z,0.60
2023-08-28T03:36:24.213Z,0.98
2023-08-28T03:38:51.290Z,0.70
2023-08-28T03:41:18.266Z,0.80
2023-08-28T03:43:45.189Z,0.82
2023-08-28T03:46:12.191Z,1.20
2023-08-28T03:48:39.140Z,0.90
2023-08-28T03:51:06.165Z,0.68
2023-08-28T03:53:33.079Z,0.90
2023-08-28T03:56:00.117Z,1.00
2023-08-28T03:58:27.345Z,1.00
2023-08-28T04:00:56.950Z,0.60
2023-08-28T04:03:23.929Z,1.05
2023-08-28T04:05:50.831Z,0.70
2023-08-28T04:08:17.785Z,0.80
2023-08-28T04:10:44.715Z,0.90
2023-08-28T04:13:11.675Z,0.52
2023-08-28T04:15:42.176Z,0.68
2023-08-28T04:18:09.445Z,0.70
2023-08-28T04:20:36.467Z,0.90
2023-08-28T04:23:03.677Z,1.00
2023-08-28T04:25:30.941Z,0.70
2023-08-28T04:27:57.863Z,0.80
2023-08-28T04:30:24.818Z,1.08
2023-08-28T04:32:51.771Z,0.80
2023-08-28T04:35:18.743Z,0.80
2023-08-28T04:37:45.713Z,1.00
2023-08-28T04:40:12.630Z,0.90
2023-08-28T04:42:39.512Z,0.80
2023-08-28T04:45:06.856Z,0.80
2023-08-28T04:47:33.761Z,0.90
2023-08-28T04:50:00.683Z,0.90
2023-08-28T04:52:27.644Z,0.88
2023-08-28T04:54:54.504Z,0.80
2023-08-28T04:57:21.628Z,0.70
2023-08-28T04:59:48.542Z,0.73
2023-08-28T05:02:15.459Z,0.70
2023-08-28T05:04:42.403Z,0.70
2023-08-28T05:07:09.404Z,0.68
2023-08-28T05:09:36.448Z,0.90
2023-08-28T05:12:03.430Z,0.70
2023-08-28T05:14:30.531Z,0.73
2023-08-28T05:16:57.664Z,1.58
2023-08-28T05:19:24.576Z,0.90
2023-08-28T05:21:51.507Z,0.93
2023-08-28T05:24:18.399Z,0.80
2023-08-28T05:26:45.360Z,0.85
2023-08-28T05:29:12.412Z,1.05
2023-08-28T05:31:39.388Z,0.75
2023-08-28T05:34:06.459Z,0.90
2023-08-28T05:36:33.473Z,0.77
2023-08-28T05:39:00.323Z,1.20
2023-08-28T05:41:27.272Z,1.02
2023-08-28T05:43:54.233Z,0.90
2023-08-28T05:46:21.295Z,1.20
2023-08-28T05:48:48.311Z,0.80
2023-08-28T05:51:15.249Z,0.93
2023-08-28T05:53:44.433Z,1.02
2023-08-28T05:56:12.885Z,0.73
2023-08-28T05:58:39.885Z,1.02
2023-08-28T06:01:06.875Z,1.25
2023-08-28T06:03:33.930Z,1.00
2023-08-28T06:06:01.079Z,1.10
2023-08-28T06:08:28.129Z,1.02
2023-08-28T06:10:55.052Z,1.17
2023-08-28T06:13:21.937Z,0.80
2023-08-28T06:15:49.618Z,1.10
2023-08-28T06:18:16.611Z,1.00
2023-08-28T06:20:43.533Z,1.08
2023-08-28T06:23:10.432Z,1.17
2023-08-28T06:25:37.374Z,0.93
2023-08-28T06:28:04.616Z,1.77
2023-08-28T06:30:31.543Z,1.05
2023-08-28T06:32:59.560Z,1.20
2023-08-28T06:35:26.683Z,1.42
2023-08-28T06:37:53.617Z,1.00
2023-08-28T06:40:20.562Z,1.13
2023-08-28T06:42:47.495Z,0.73
2023-08-28T06:45:14.412Z,1.30
2023-08-28T06:47:41.394Z,1.27
2023-08-28T06:50:10.101Z,1.33
2023-08-28T06:52:37.531Z,0.90
2023-08-28T06:55:04.695Z,1.10
2023-08-28T06:57:31.698Z,1.05
2023-08-28T06:59:58.686Z,1.38
2023-08-28T07:02:25.638Z,1.02
2023-08-28T07:04:52.486Z,1.05
2023-08-28T07:07:19.542Z,1.20
2023-08-28T07:09:46.521Z,1.48
2023-08-28T07:12:13.395Z,1.25
2023-08-28T07:14:40.309Z,1.13
2023-08-28T07:17:07.557Z,1.55
2023-08-28T07:19:34.549Z,1.67
2023-08-28T07:22:01.989Z,1.50
2023-08-28T07:24:29.123Z,1.85
2023-08-28T07:26:56.348Z,1.40
2023-08-28T07:29:23.292Z,1.55
2023-08-28T07:31:50.365Z,1.67
2023-08-28T07:34:17.256Z,1.10
2023-08-28T07:36:45.486Z,1.13
2023-08-28T07:39:12.518Z,1.60
2023-08-28T07:41:39.436Z,1.73
2023-08-28T07:44:06.953Z,1.33
2023-08-28T07:46:33.876Z,1.13
2023-08-28T07:49:00.798Z,1.30
2023-08-28T07:51:27.785Z,1.70
2023-08-28T07:53:56.718Z,1.20
2023-08-28T07:56:23.866Z,1.42
2023-08-28T07:58:51.249Z,1.30
2023-08-28T08:01:18.288Z,1.00
2023-08-28T08:03:45.336Z,0.90
2023-08-28T08:06:12.237Z,1.23
2023-08-28T08:08:39.333Z,1.00
2023-08-28T08:11:06.280Z,1.02
2023-08-28T08:13:33.506Z,1.27
2023-08-28T08:16:00.471Z,1.20
2023-08-28T08:18:27.379Z,1.35
2023-08-28T08:20:54.408Z,1.05
2023-08-28T08:23:22.904Z,1.33
2023-08-28T08:25:50.210Z,1.10
2023-08-28T08:28:17.089Z,1.00
2023-08-28T08:30:44.088Z,1.30
2023-08-28T08:33:11.643Z,0.98
2023-08-28T08:35:38.715Z,1.45
2023-08-28T08:38:05.889Z,1.13
2023-08-28T08:40:32.833Z,1.10
2023-08-28T08:42:59.922Z,1.23
2023-08-28T08:45:30.154Z,1.05
2023-08-28T08:48:01.036Z,0.98
2023-08-28T08:50:29.206Z,1.00
2023-08-28T08:53:05.461Z,1.08
2023-08-28T08:55:43.004Z,1.15
2023-08-28T08:58:12.004Z,1.52
2023-08-28T09:00:40.103Z,0.80
2023-08-28T09:03:07.656Z,0.90
2023-08-28T09:05:34.972Z,1.00
2023-08-28T09:08:03.093Z,1.15
2023-08-28T09:10:30.212Z,0.70
2023-08-28T09:12:57.159Z,0.75
2023-08-28T09:15:27.457Z,0.68
2023-08-28T09:17:54.477Z,0.80
2023-08-28T09:20:23.033Z,0.70
2023-08-28T09:22:54.999Z,0.50
2023-08-28T09:25:23.335Z,0.50
2023-08-28T09:27:51.412Z,0.40
2023-08-28T09:30:32.035Z,0.57
2023-08-28T09:33:00.623Z,0.50
2023-08-28T09:35:28.620Z,0.40
2023-08-28T09:37:59.892Z,0.70
2023-08-28T09:40:32.327Z,0.43
2023-08-28T09:42:59.642Z,0.63
2023-08-28T09:45:33.719Z,0.30
2023-08-28T09:48:03.829Z,0.47
2023-08-28T09:50:31.240Z,0.50
2023-08-28T09:53:11.093Z,0.70
2023-08-28T09:55:41.463Z,0.60
2023-08-28T09:58:12.267Z,0.50
2023-08-28T10:00:43.350Z,0.50
2023-08-28T10:03:11.778Z,0.40
2023-08-28T10:05:40.018Z,0.57
2023-08-28T10:08:08.456Z,0.60
2023-08-28T10:10:36.122Z,0.50
2023-08-28T10:13:05.387Z,0.60
2023-08-28T10:15:40.102Z,0.30
2023-08-28T10:18:09.725Z,0.38
2023-08-28T10:20:36.870Z,0.43
2023-08-28T10:23:04.678Z,0.50
2023-08-28T10:25:32.223Z,0.50
2023-08-28T10:27:59.672Z,0.50
2023-08-28T10:30:27.732Z,0.80
2023-08-28T10:32:57.678Z,0.40
2023-08-28T10:35:24.614Z,0.40
2023-08-28T10:37:52.201Z,0.32
2023-08-28T10:40:19.432Z,0.38
2023-08-28T10:42:46.265Z,0.30
2023-08-28T10:45:13.090Z,0.68
2023-08-28T10:47:40.219Z,0.60
2023-08-28T10:50:07.924Z,0.70
2023-08-28T10:52:34.805Z,0.60
2023-08-28T10:55:11.238Z,0.50
2023-08-28T10:57:41.370Z,0.50
2023-08-28T11:00:16.262Z,0.40
2023-08-28T11:03:09.232Z,0.60
2023-08-28T11:05:38.236Z,0.13
2023-08-28T11:08:06.276Z,0.50
2023-08-28T11:10:33.306Z,0.30
2023-08-28T11:13:07.447Z,0.50
2023-08-28T11:15:41.887Z,0.38
2023-08-28T11:18:30.677Z,0.40
2023-08-28T11:20:57.613Z,0.30
2023-08-28T11:23:35.428Z,0.40
2023-08-28T11:26:22.614Z,0.60
2023-08-28T11:28:50.464Z,0.32
2023-08-28T11:31:17.577Z,0.65
2023-08-28T11:33:46.888Z,0.50
2023-08-28T11:36:20.022Z,0.40
2023-08-28T11:38:47.954Z,0.30
2023-08-28T11:41:14.972Z,0.50
2023-08-28T11:43:43.067Z,0.60
2023-08-28T11:46:13.318Z,0.40
2023-08-28T11:48:49.884Z,0.30
2023-08-28T11:51:17.327Z,0.40
2023-08-28T11:53:44.618Z,0.30
2023-08-28T11:56:13.171Z,0.50
2023-08-28T11:58:41.799Z,0.50
2023-08-28T12:01:15.592Z,0.60
2023-08-28T12:03:43.802Z,0.45
2023-08-28T12:06:13.354Z,0.60
2023-08-28T12:08:41.597Z,0.55
2023-08-28T12:11:10.235Z,0.40
2023-08-28T12:13:42.841Z,0.30
2023-08-28T12:16:16.791Z,0.30
2023-08-28T12:18:58.214Z,0.35
2023-08-28T12:21:40.557Z,0.30
2023-08-28T12:28:48.447Z,0.40
2023-08-28T12:35:15.049Z,0.35
2023-08-28T12:37:52.359Z,0.40
2023-08-28T12:40:21.040Z,0.40
2023-08-28T12:42:48.333Z,0.35
2023-08-28T12:45:26.258Z,0.30
2023-08-28T12:47:59.345Z,0.30
2023-08-28T12:50:56.297Z,0.30
2023-08-28T12:53:24.375Z,0.40
2023-08-28T12:55:52.232Z,0.35
2023-08-28T12:58:21.339Z,0.50
2023-08-28T13:00:51.333Z,0.38
2023-08-28T13:03:18.711Z,0.40
2023-08-28T13:05:49.723Z,0.38
2023-08-28T13:08:19.947Z,0.30
2023-08-28T13:10:48.522Z,0.20
2023-08-28T13:13:21.255Z,0.43
2023-08-28T13:15:48.825Z,0.38
2023-08-28T13:18:44.480Z,0.30
2023-08-28T13:21:34.549Z,0.22
2023-08-28T13:24:01.976Z,0.50
2023-08-28T13:26:31.433Z,0.30
2023-08-28T13:28:59.849Z,0.30
2023-08-28T13:31:30.923Z,0.30
2023-08-28T13:34:01.576Z,0.40
2023-08-28T13:36:57.215Z,0.50
2023-08-28T13:42:17.555Z,0.28
2023-08-28T13:42:46.989Z,0.20
2023-08-28T13:44:47.264Z,0.57
2023-08-28T13:47:30.548Z,0.30
2023-08-28T13:50:23.010Z,0.47
2023-08-28T13:52:51.191Z,0.40
2023-08-28T13:55:21.386Z,0.70
2023-08-28T13:58:38.378Z,0.63
2023-08-28T14:05:02.334Z,0.35
2023-08-28T14:08:32.822Z,0.50
2023-08-28T14:14:26.592Z,0.43
2023-08-28T14:20:01.032Z,0.65
2023-08-28T14:23:38.606Z,0.45
2023-08-28T14:26:16.723Z,0.40
2023-08-28T14:29:13.686Z,0.32
2023-08-28T14:32:41.270Z,0.47
2023-08-28T14:35:08.682Z,0.40
2023-08-28T14:38:11.437Z,0.70
2023-08-28T14:40:47.515Z,0.38
2023-08-28T14:43:57.096Z,0.30
2023-08-28T14:46:42.532Z,0.60
2023-08-28T14:49:24.536Z,0.47
2023-08-28T15:06:16.880Z,0.60
2023-08-28T15:08:44.099Z,0.50
2023-08-28T15:22:57.344Z,0.75
2023-08-28T15:25:36.320Z,0.50
2023-08-28T15:36:16.940Z,0.60
2023-08-28T15:38:54.895Z,0.95
2023-08-28T15:41:22.513Z,0.85
2023-08-28T15:43:52.990Z,0.45
2023-08-28T15:46:25.109Z,0.70
2023-08-28T15:48:53.427Z,0.80
2023-08-28T15:51:20.532Z,0.70
2023-08-28T15:53:48.273Z,0.50
2023-08-28T15:56:16.310Z,0.88
2023-08-28T15:58:46.616Z,0.68
2023-08-28T16:01:18.055Z,1.08
2023-08-28T16:03:51.538Z,0.80
2023-08-28T16:08:45.554Z,0.80
2023-08-28T16:11:12.534Z,0.57
2023-08-28T16:13:39.741Z,0.95
2023-08-28T16:16:07.118Z,1.17
2023-08-28T16:18:34.354Z,0.82
2023-08-28T16:21:03.356Z,0.90
2023-08-28T16:27:11.267Z,0.40
2023-08-28T16:29:38.311Z,0.50
2023-08-28T16:32:05.671Z,0.60
2023-08-28T16:34:32.596Z,0.63
2023-08-28T16:36:59.618Z,0.77
2023-08-28T16:39:26.548Z,0.60
2023-08-28T16:41:54.173Z,0.90
2023-08-28T16:44:21.226Z,0.47
2023-08-28T16:46:57.079Z,0.57
2023-08-28T16:49:23.960Z,0.70
2023-08-28T16:51:50.856Z,0.70
2023-08-28T16:54:17.709Z,0.82
2023-08-28T16:56:44.846Z,0.80
2023-08-28T16:59:11.993Z,0.50
2023-08-28T17:01:39.154Z,0.43
2023-08-28T17:04:06.285Z,0.88
2023-08-28T17:06:36.498Z,0.70
2023-08-28T17:09:05.880Z,0.60
2023-08-28T17:11:33.144Z,0.98
2023-08-28T17:14:00.101Z,0.98
2023-08-28T17:16:27.168Z,0.50
2023-08-28T17:18:54.200Z,0.77
2023-08-28T17:21:21.114Z,0.88
2023-08-28T17:23:48.136Z,0.70
2023-08-28T17:26:15.078Z,0.75
2023-08-28T17:28:42.053Z,0.70
2023-08-28T17:31:10.174Z,0.52
2023-08-28T17:33:37.171Z,0.90
2023-08-28T17:36:04.331Z,1.02
2023-08-28T17:38:31.317Z,0.52
2023-08-28T17:40:58.311Z,1.10
2023-08-28T17:43:25.317Z,0.40
2023-08-28T17:45:52.320Z,0.85
2023-08-28T17:48:19.207Z,1.08
2023-08-28T17:50:46.124Z,0.77
2023-08-28T17:53:13.187Z,1.33
2023-08-28T17:55:40.123Z,0.70
2023-08-28T17:58:07.205Z,1.15
2023-08-28T18:00:34.144Z,0.85
2023-08-28T18:03:06.403Z,0.70
2023-08-28T18:05:37.899Z,1.67
2023-08-28T18:08:06.862Z,0.80
2023-08-28T18:10:33.804Z,0.90
2023-08-28T18:13:00.814Z,0.90
2023-08-28T18:15:27.780Z,1.10
2023-08-28T18:17:54.811Z,1.02
2023-08-28T18:20:21.832Z,0.95
2023-08-28T18:22:48.830Z,1.02
2023-08-28T18:25:16.004Z,1.20
2023-08-28T18:28:00.094Z,0.93
2023-08-28T18:30:30.661Z,1.00
2023-08-28T18:32:57.650Z,1.00
2023-08-28T18:35:24.692Z,1.08
2023-08-28T18:37:51.664Z,1.10
2023-08-28T18:40:18.593Z,1.30
2023-08-28T18:42:45.560Z,1.20
2023-08-28T18:45:12.500Z,1.38
2023-08-28T18:47:39.501Z,1.70
2023-08-28T18:50:06.829Z,1.67
2023-08-28T18:52:33.813Z,1.23
2023-08-28T18:55:00.693Z,1.60
2023-08-28T18:57:27.695Z,1.10
2023-08-28T18:59:54.563Z,1.77
2023-08-28T19:02:21.580Z,1.60
2023-08-28T19:04:48.544Z,2.13
2023-08-28T19:07:16.473Z,1.50
2023-08-28T19:09:45.466Z,1.95
2023-08-28T19:12:12.394Z,1.80
2023-08-28T19:14:39.380Z,1.20
2023-08-28T19:17:06.365Z,1.40
2023-08-28T19:19:33.306Z,1.38
2023-08-28T19:22:00.307Z,1.90
2023-08-28T19:24:27.383Z,1.95
2023-08-28T19:26:54.776Z,1.67
2023-08-28T19:29:21.726Z,1.73
2023-08-28T19:31:48.640Z,2.17
2023-08-28T19:34:15.569Z,2.08
2023-08-28T19:36:42.540Z,1.80
2023-08-28T19:39:10.019Z,2.20
2023-08-28T19:41:37.000Z,1.85
2023-08-28T19:44:04.513Z,2.90
2023-08-28T19:46:31.523Z,2.42
2023-08-28T19:48:58.519Z,2.30
2023-08-28T19:51:28.496Z,2.17
2023-08-28T19:53:55.711Z,2.30
2023-08-28T19:56:22.693Z,2.17
2023-08-28T19:58:49.681Z,2.30
2023-08-28T20:01:16.634Z,1.70
2023-08-28T20:03:43.643Z,1.60
2023-08-28T20:06:11.403Z,1.40
2023-08-28T20:08:38.399Z,1.17
2023-08-28T20:11:06.442Z,1.23
2023-08-28T20:13:33.791Z,1.55
2023-08-28T20:16:00.874Z,1.42
2023-08-28T20:18:27.932Z,1.30
2023-08-28T20:20:54.878Z,1.30
2023-08-28T20:23:22.251Z,1.10
2023-08-28T20:25:49.888Z,1.77
2023-08-28T20:28:16.886Z,1.88
2023-08-28T20:30:43.872Z,1.42
2023-08-28T20:33:10.971Z,1.40
2023-08-28T20:35:37.913Z,1.08
2023-08-28T20:38:06.172Z,1.20
2023-08-28T20:40:34.243Z,2.17
2023-08-28T20:43:02.249Z,1.58
2023-08-28T20:45:29.346Z,1.60
2023-08-28T20:47:56.649Z,2.58
2023-08-28T20:50:25.822Z,2.67
2023-08-28T20:52:53.028Z,3.00
2023-08-28T20:55:20.066Z,2.95
2023-08-28T20:57:46.997Z,3.72
2023-08-28T21:00:14.708Z,2.65
2023-08-28T21:02:41.729Z,3.13
2023-08-28T21:05:09.186Z,2.60
2023-08-28T21:07:36.289Z,2.20
2023-08-28T21:10:03.448Z,2.33
2023-08-28T21:12:30.471Z,2.60
2023-08-28T21:14:57.379Z,2.55
2023-08-28T21:17:24.416Z,1.95
2023-08-28T21:19:54.251Z,2.47
2023-08-28T21:22:21.621Z,2.60
2023-08-28T21:24:48.604Z,2.55
2023-08-28T21:27:18.258Z,2.35
2023-08-28T21:29:45.231Z,2.35
2023-08-28T21:32:12.203Z,2.45
2023-08-28T21:34:39.086Z,3.13
2023-08-28T21:37:06.113Z,2.15
2023-08-28T21:39:33.029Z,3.22
2023-08-28T21:42:00.092Z,2.33
2023-08-28T21:44:27.444Z,2.10
2023-08-28T21:46:54.464Z,2.40
2023-08-28T21:49:21.512Z,2.50
2023-08-28T21:51:48.393Z,2.92
2023-08-28T21:54:17.783Z,2.67
2023-08-28T21:56:52.451Z,2.28
2023-08-28T21:59:23.145Z,2.38
2023-08-28T22:01:50.333Z,2.22
2023-08-28T22:04:17.487Z,2.83
2023-08-28T22:06:44.598Z,2.50
2023-08-28T22:09:11.838Z,3.03
2023-08-28T22:11:38.901Z,2.80
2023-08-28T22:14:06.114Z,3.30
2023-08-28T22:16:35.446Z,3.10
2023-08-28T22:19:02.370Z,2.50
2023-08-28T22:21:29.350Z,3.03
2023-08-28T22:23:56.257Z,3.00
2023-08-28T22:26:23.311Z,3.25
2023-08-28T22:28:50.258Z,2.95
2023-08-28T22:31:17.220Z,3.25
2023-08-28T22:33:44.189Z,2.78
2023-08-28T22:36:11.149Z,3.25
2023-08-28T22:38:38.200Z,2.85
2023-08-28T22:41:05.929Z,3.03
2023-08-28T22:43:33.076Z,2.60
2023-08-28T22:46:00.035Z,2.72
2023-08-28T22:48:27.020Z,2.90
2023-08-28T22:50:53.998Z,2.92
2023-08-28T22:53:20.930Z,3.10
2023-08-28T22:55:48.451Z,2.70
2023-08-28T22:58:15.803Z,3.28
2023-08-28T23:00:42.852Z,2.35
2023-08-28T23:03:10.292Z,2.72
2023-08-28T23:05:44.476Z,2.78
2023-08-28T23:08:11.601Z,2.50
2023-08-28T23:10:38.557Z,2.75
2023-08-28T23:13:05.486Z,2.55
2023-08-28T23:15:35.375Z,2.65
2023-08-28T23:18:04.140Z,1.90
2023-08-28T23:20:31.676Z,2.20
2023-08-28T23:22:58.625Z,2.55
2023-08-28T23:25:26.963Z,2.10
2023-08-28T23:27:54.905Z,2.20
2023-08-28T23:30:23.031Z,2.70
2023-08-28T23:32:50.088Z,2.10
2023-08-28T23:35:17.160Z,1.88
2023-08-28T23:37:44.122Z,2.55
2023-08-28T23:40:15.068Z,2.47
2023-08-28T23:42:42.189Z,1.80
2023-08-28T23:45:09.412Z,2.03
2023-08-28T23:47:37.021Z,2.17
2023-08-28T23:50:04.162Z,2.20
2023-08-28T23:52:31.150Z,2.15
2023-08-28T23:54:58.106Z,2.38
2023-08-28T23:57:25.037Z,2.42
2023-08-28T23:59:52.086Z,2.88
